Time;durP1;ratioP1;P1;durP2;ratioP2;P2;SDS_P1;SDS_P2;PMS_P1;PMS_P2;Temp;Humidity;BMP_temperature;BMP_pressure;BME280_temperature;BME280_humidity;BME280_pressure;Samples;Min_cycle;Max_cycle;Signal;HPM_P1;HPM_P2
2023/01/31 00:01:20;;;;;;;9.18;3.30;;;;;;;3.95;67.19;97811.19;5302209;27;20052;-82
2023/01/31 00:03:52;;;;;;;8.90;3.25;;;;;;;3.87;67.94;97821.53;5302132;27;20045;-83
2023/01/31 00:06:21;;;;;;;8.77;2.92;;;;;;;3.99;67.87;97833.22;5302485;27;20061;-83
2023/01/31 00:08:49;;;;;;;8.35;2.90;;;;;;;4.06;67.33;97822.03;5302432;27;20403;-83
2023/01/31 00:11:18;;;;;;;7.82;2.90;;;;;;;3.87;67.86;97830.91;5301921;27;20110;-82
2023/01/31 00:13:45;;;;;;;8.68;3.00;;;;;;;4.06;67.14;97845.00;5302451;27;20104;-83
2023/01/31 00:16:14;;;;;;;6.93;2.60;;;;;;;3.96;67.73;97841.78;5301852;27;20391;-81
2023/01/31 00:18:41;;;;;;;8.63;2.83;;;;;;;3.92;68.04;97850.34;5302375;27;20057;-83
2023/01/31 00:21:16;;;;;;;9.10;2.80;;;;;;;3.97;68.20;97850.28;5300918;27;20400;-82
2023/01/31 00:23:44;;;;;;;7.60;3.10;;;;;;;4.09;68.13;97857.69;5302031;27;20049;-83
2023/01/31 00:26:14;;;;;;;8.07;2.40;;;;;;;3.85;68.83;97869.22;5282875;27;20058;-82
2023/01/31 00:28:42;;;;;;;6.97;2.40;;;;;;;3.94;68.51;97850.34;5302146;27;20364;-82
2023/01/31 00:31:10;;;;;;;6.53;2.37;;;;;;;3.98;68.77;97862.19;5301670;27;20056;-82
2023/01/31 00:33:39;;;;;;;7.85;2.65;;;;;;;3.97;68.58;97871.53;5300999;27;20053;-83
2023/01/31 00:36:08;;;;;;;6.28;2.30;;;;;;;3.83;69.32;97873.53;5300808;27;20058;-82
2023/01/31 00:38:35;;;;;;;9.45;2.80;;;;;;;3.80;68.84;97844.66;5301810;27;20067;-83
2023/01/31 00:41:03;;;;;;;8.15;2.92;;;;;;;3.85;69.21;97868.41;5302180;27;20052;-82
2023/01/31 00:43:31;;;;;;;8.45;2.80;;;;;;;3.77;69.48;97864.25;5301004;27;20412;-82
2023/01/31 00:45:58;;;;;;;9.35;3.15;;;;;;;3.82;69.96;97869.28;5300224;27;20125;-82
2023/01/31 00:48:25;;;;;;;8.18;3.05;;;;;;;3.70;70.32;97872.88;5302250;27;20114;-82
2023/01/31 00:50:53;;;;;;;9.45;3.00;;;;;;;3.82;70.39;97869.28;5302180;27;20053;-82
2023/01/31 00:53:24;;;;;;;9.38;3.58;;;;;;;3.80;70.57;97871.00;5301808;27;20079;-82
2023/01/31 00:56:01;;;;;;;7.82;3.10;;;;;;;3.73;70.81;97872.00;5300853;27;20061;-82
2023/01/31 00:58:28;;;;;;;9.77;3.30;;;;;;;3.76;70.87;97871.94;5300483;27;20071;-83
2023/01/31 01:00:54;;;;;;;;;;;;;;;3.55;71.68;97867.22;5302418;27;20060;-82
2023/01/31 01:03:21;;;;;;;8.00;2.85;;;;;;;3.69;71.57;97872.91;5302464;27;19962;-82
2023/01/31 01:05:48;;;;;;;10.50;3.35;;;;;;;3.75;71.66;97888.13;5300425;27;20061;-82
2023/01/31 01:08:15;;;;;;;;;;;;;;;3.73;71.21;97880.50;5302492;27;20072;-83
2023/01/31 01:10:42;;;;;;;7.28;2.67;;;;;;;3.73;71.72;97893.28;5302198;27;19986;-82
2023/01/31 01:13:08;;;;;;;8.13;2.60;;;;;;;3.86;71.28;97860.69;5282479;27;20399;-82
2023/01/31 01:15:38;;;;;;;6.22;2.55;;;;;;;3.85;71.77;97876.88;5302006;27;20080;-82
2023/01/31 01:18:05;;;;;;;7.07;2.35;;;;;;;3.94;72.12;97886.94;5302007;27;20056;-82
2023/01/31 01:20:33;;;;;;;6.50;2.03;;;;;;;3.99;71.60;97887.66;5301640;27;20053;-82
2023/01/31 01:23:00;;;;;;;7.05;2.10;;;;;;;4.07;71.98;97874.78;5302208;27;20095;-83
2023/01/31 01:25:27;;;;;;;7.55;2.10;;;;;;;3.93;72.22;97866.50;5300758;27;20375;-82
2023/01/31 01:27:54;;;;;;;8.07;2.25;;;;;;;4.04;72.38;97885.88;5301709;27;20061;-82
2023/01/31 01:30:21;;;;;;;6.07;2.00;;;;;;;4.09;71.96;97893.44;5301991;27;20127;-82
2023/01/31 01:32:48;;;;;;;6.37;1.77;;;;;;;4.16;71.68;97897.56;5282728;27;20412;-82
2023/01/31 01:35:14;;;;;;;;;;;;;;;4.21;70.96;97885.53;5302124;27;20099;-82
2023/01/31 01:37:41;;;;;;;5.07;1.90;;;;;;;4.05;72.03;97889.28;5302087;27;19964;-82
2023/01/31 01:40:09;;;;;;;4.15;1.73;;;;;;;4.06;71.95;97896.06;5296459;27;151468;-82
2023/01/31 01:42:36;;;;;;;5.68;2.00;;;;;;;4.02;72.96;97886.75;5301539;27;20051;-83
2023/01/31 01:45:14;;;;;;;5.90;2.50;;;;;;;4.17;72.31;97906.91;5301530;27;20092;-82
2023/01/31 01:47:50;;;;;;;8.15;2.25;;;;;;;3.94;73.53;97903.97;5283113;27;20475;-82
2023/01/31 01:50:32;;;;;;;7.95;1.90;;;;;;;4.19;72.24;97901.78;5282454;27;20048;-82
2023/01/31 01:53:10;;;;;;;5.43;2.05;;;;;;;3.91;73.49;97886.12;5302011;27;20045;-82
2023/01/31 01:55:41;;;;;;;5.70;2.05;;;;;;;3.97;73.33;97876.66;5301679;27;20096;-82
2023/01/31 01:58:26;;;;;;;6.50;2.12;;;;;;;3.81;74.77;97895.66;5302064;27;20053;-82
2023/01/31 02:00:53;;;;;;;5.12;1.75;;;;;;;3.84;74.77;97882.03;5302142;27;20048;-82
2023/01/31 02:03:21;;;;;;;4.95;1.70;;;;;;;3.73;75.41;97898.37;5301596;27;20073;-82
2023/01/31 02:05:51;;;;;;;6.07;2.15;;;;;;;3.77;75.34;97884.69;5300489;27;20065;-82
2023/01/31 02:08:20;;;;;;;7.05;1.90;;;;;;;3.75;75.72;97891.53;5301852;27;20069;-82
2023/01/31 02:11:09;;;;;;;6.50;2.03;;;;;;;3.82;75.70;97905.00;5281960;27;20053;-83
2023/01/31 02:13:39;;;;;;;5.97;1.92;;;;;;;3.91;75.68;97893.78;5301855;27;20045;-82
2023/01/31 02:16:06;;;;;;;6.00;2.03;;;;;;;3.63;77.31;97906.22;5301576;27;20061;-82
2023/01/31 02:18:33;;;;;;;5.22;1.87;;;;;;;3.47;78.38;97893.72;5301894;27;20387;-82
2023/01/31 02:21:18;;;;;;;5.68;2.20;;;;;;;3.64;78.10;97913.00;5282423;27;20052;-82
2023/01/31 02:24:06;;;;;;;4.93;2.03;;;;;;;3.52;78.67;97911.50;5301391;27;20045;-83
2023/01/31 02:26:56;;;;;;;4.75;1.90;;;;;;;3.65;78.71;97905.31;5301993;27;20118;-82
2023/01/31 02:29:49;;;;;;;5.85;2.10;;;;;;;3.72;78.56;97908.59;5300503;27;20518;-83
2023/01/31 02:32:35;;;;;;;6.97;2.12;;;;;;;3.29;81.23;97909.31;5282362;27;20420;-82
2023/01/31 02:35:26;;;;;;;4.50;1.87;;;;;;;3.28;81.30;97909.34;5301853;27;20041;-82
2023/01/31 02:38:12;;;;;;;4.65;1.90;;;;;;;3.37;80.69;97907.47;5301327;27;20061;-82
2023/01/31 02:40:47;;;;;;;6.30;1.70;;;;;;;3.45;80.98;97913.31;5282279;27;20119;-82
2023/01/31 02:46:48;;;;;;;5.40;1.83;;;;;;;3.64;79.72;97931.69;5301501;27;20087;-82
2023/01/31 02:49:34;;;;;;;4.67;1.57;;;;;;;3.57;80.78;97927.56;5300661;27;20072;-82
2023/01/31 02:52:17;;;;;;;7.00;1.70;;;;;;;3.76;80.21;97931.47;5301300;27;20142;-83
2023/01/31 02:57:48;;;;;;;4.57;1.52;;;;;;;3.79;79.98;97940.78;5301176;27;20103;-82
2023/01/31 03:00:16;;;;;;;5.55;1.95;;;;;;;3.74;81.46;97955.34;5301165;27;20119;-82
2023/01/31 03:02:43;;;;;;;4.55;1.90;;;;;;;3.73;81.92;97956.22;5282953;27;20412;-82
2023/01/31 03:05:17;;;;;;;4.43;2.00;;;;;;;3.58;82.57;97962.41;5302246;27;20053;-83
2023/01/31 03:07:59;;;;;;;6.15;1.77;;;;;;;4.01;80.88;97957.41;5302625;27;20048;-82
2023/01/31 03:10:43;;;;;;;5.62;1.90;;;;;;;3.92;81.49;97943.97;5301130;27;20065;-82
2023/01/31 03:13:41;;;;;;;6.35;2.08;;;;;;;3.86;81.52;97954.31;5282659;27;20065;-82
2023/01/31 03:19:14;;;;;;;7.07;2.25;;;;;;;3.41;83.75;97952.50;5285626;27;20045;-82
2023/01/31 03:21:55;;;;;;;6.85;2.50;;;;;;;3.38;84.08;97949.97;5283049;27;20065;-82
2023/01/31 03:24:25;;;;;;;8.00;2.42;;;;;;;3.45;83.67;97954.12;5301228;27;20061;-82
2023/01/31 03:26:55;;;;;;;7.68;2.40;;;;;;;3.41;84.56;97960.13;5300646;27;20053;-82
2023/01/31 03:29:22;;;;;;;10.02;2.37;;;;;;;3.46;84.53;97962.59;5282857;27;20160;-82
2023/01/31 03:31:57;;;;;;;10.75;2.58;;;;;;;3.40;84.62;97983.97;5283072;27;20129;-82
2023/01/31 03:34:25;;;;;;;7.62;2.53;;;;;;;3.54;85.66;97970.16;5282601;27;20381;-82
2023/01/31 03:37:17;;;;;;;7.32;2.33;;;;;;;3.37;87.64;97958.47;5282776;27;20050;-82
2023/01/31 03:40:04;;;;;;;7.50;2.67;;;;;;;3.56;87.46;97959.03;5300640;27;20098;-82
2023/01/31 03:43:00;;;;;;;8.70;2.60;;;;;;;3.21;89.08;97958.75;5302555;27;20115;-82
2023/01/31 03:45:52;;;;;;;8.07;2.70;;;;;;;3.40;87.76;97971.22;5282835;27;20057;-82
2023/01/31 03:48:21;;;;;;;8.55;2.80;;;;;;;3.53;86.24;97954.00;5277257;27;20414;-82
2023/01/31 03:50:57;;;;;;;6.62;2.58;;;;;;;3.21;87.21;97963.84;5301217;27;20045;-82
2023/01/31 03:53:31;;;;;;;6.43;2.53;;;;;;;3.33;86.01;97961.97;5300948;27;20068;-82
2023/01/31 03:56:02;;;;;;;5.47;2.15;;;;;;;3.39;85.09;97958.47;5301998;27;20412;-82
2023/01/31 03:58:33;;;;;;;7.87;2.67;;;;;;;3.29;86.21;97959.47;5301109;27;20424;-82
2023/01/31 04:01:01;;;;;;;7.50;2.50;;;;;;;3.35;86.91;97962.78;5302048;27;20110;-82
2023/01/31 04:03:37;;;;;;;5.05;2.17;;;;;;;3.36;87.19;97969.56;5300937;27;20430;-82
2023/01/31 04:06:04;;;;;;;10.43;2.55;;;;;;;3.39;88.50;97989.06;5302417;27;20075;-82
2023/01/31 04:08:33;;;;;;;7.05;2.20;;;;;;;3.17;89.91;97981.72;5302181;27;20053;-82
2023/01/31 04:11:03;;;;;;;9.05;2.55;;;;;;;3.28;90.41;97965.44;5282877;27;20099;-82
2023/01/31 04:13:30;;;;;;;7.37;2.50;;;;;;;3.31;89.81;97973.06;5282953;27;20064;-82
2023/01/31 04:15:57;;;;;;;5.60;2.20;;;;;;;3.38;88.74;97978.03;5301886;27;20372;-82
2023/01/31 04:18:24;;;;;;;8.55;2.70;;;;;;;3.56;87.28;97981.16;5302314;27;20404;-82
2023/01/31 04:20:51;;;;;;;8.57;2.30;;;;;;;3.54;87.21;97975.25;5302025;27;20094;-82
2023/01/31 04:23:18;;;;;;;9.45;2.92;;;;;;;3.35;88.12;97977.22;5302021;27;20115;-82
2023/01/31 04:25:45;;;;;;;7.78;2.62;;;;;;;3.34;89.01;97983.19;5302356;27;20060;-82
2023/01/31 04:28:13;;;;;;;8.30;2.65;;;;;;;3.47;87.38;97980.44;5302301;27;20136;-82
2023/01/31 04:30:39;;;;;;;6.35;2.40;;;;;;;3.58;86.21;97985.38;5301891;27;20522;-82
2023/01/31 04:33:06;;;;;;;7.35;2.40;;;;;;;3.65;85.07;97976.75;5302324;27;20119;-82
2023/01/31 04:35:33;;;;;;;6.87;2.62;;;;;;;3.55;85.31;97987.97;5302367;27;20076;-82
2023/01/31 04:38:00;;;;;;;6.95;2.12;;;;;;;3.73;85.10;97984.28;5301685;27;20049;-82
2023/01/31 04:40:27;;;;;;;6.12;2.53;;;;;;;3.81;84.28;97989.25;5302244;27;20050;-82
2023/01/31 04:42:54;;;;;;;8.25;2.62;;;;;;;3.79;84.37;97989.28;5301995;27;20116;-82
2023/01/31 04:45:21;;;;;;;9.50;2.83;;;;;;;3.77;84.52;97989.31;5301901;27;20057;-82
2023/01/31 04:47:48;;;;;;;10.90;2.80;;;;;;;3.89;84.35;97992.53;5300898;27;20069;-82
2023/01/31 04:50:15;;;;;;;7.45;2.67;;;;;;;3.75;84.80;97985.09;5301648;27;20135;-82
2023/01/31 04:52:42;;;;;;;6.20;2.33;;;;;;;3.80;84.82;97996.06;5302335;27;20061;-82
2023/01/31 04:55:09;;;;;;;8.20;2.70;;;;;;;3.74;84.09;97989.37;5302300;27;20062;-82
2023/01/31 04:57:36;;;;;;;15.20;2.80;;;;;;;4.03;84.22;98011.00;5301628;27;20052;-82
2023/01/31 05:00:03;;;;;;;7.75;2.92;;;;;;;3.47;87.17;98020.41;5302150;27;20102;-82
2023/01/31 05:02:30;;;;;;;8.88;3.12;;;;;;;3.61;88.37;98021.03;5302296;27;20064;-82
2023/01/31 05:04:57;;;;;;;7.03;2.87;;;;;;;3.32;91.95;98018.94;5301815;27;20057;-82
2023/01/31 05:07:24;;;;;;;8.35;2.58;;;;;;;2.88;96.31;98032.28;5302128;27;20045;-82
2023/01/31 05:09:51;;;;;;;9.43;3.17;;;;;;;3.16;94.82;98035.28;5302117;27;20470;-82
2023/01/31 05:12:18;;;;;;;6.65;2.62;;;;;;;3.23;94.86;98048.81;5301731;27;20397;-82
2023/01/31 05:14:45;;;;;;;13.65;3.22;;;;;;;2.98;96.56;98051.69;5302110;27;20062;-82
2023/01/31 05:17:12;;;;;;;9.70;3.33;;;;;;;2.81;98.53;98056.13;5301999;27;20122;-82
2023/01/31 05:19:41;;;;;;;9.80;3.03;;;;;;;3.32;95.82;98062.28;5301198;27;20052;-82
2023/01/31 05:22:08;;;;;;;8.68;2.78;;;;;;;3.14;96.49;98067.63;5302128;27;20494;-82
2023/01/31 05:24:35;;;;;;;7.95;3.03;;;;;;;3.15;94.54;98062.50;5302206;27;20061;-82
2023/01/31 05:27:02;;;;;;;8.20;2.87;;;;;;;3.25;93.81;98055.56;5301817;27;20058;-82
2023/01/31 05:29:31;;;;;;;10.75;3.15;;;;;;;3.13;93.68;98065.94;5302076;27;20388;-82
2023/01/31 05:32:01;;;;;;;7.93;3.00;;;;;;;3.28;92.60;98064.87;5301653;27;20057;-81
2023/01/31 05:34:31;;;;;;;12.00;3.35;;;;;;;3.26;91.15;98061.50;5302152;27;20454;-82
2023/01/31 05:36:59;;;;;;;7.62;2.87;;;;;;;3.36;90.70;98061.38;5300670;27;20050;-82
2023/01/31 05:39:26;;;;;;;6.82;2.62;;;;;;;3.57;nan;98069.59;5301556;27;20045;-82
2023/01/31 05:41:54;;;;;;;7.60;2.90;;;;;;;3.44;88.41;98053.62;5300917;27;35924;-82
2023/01/31 05:44:21;;;;;;;10.13;2.90;;;;;;;3.60;86.70;98057.63;5300657;27;20123;-82
2023/01/31 05:46:48;;;;;;;9.80;2.80;;;;;;;3.86;85.00;98066.59;5301908;27;20041;-82
2023/01/31 05:49:15;;;;;;;10.30;3.10;;;;;;;3.41;86.69;98076.62;5301900;27;20391;-82
2023/01/31 05:51:42;;;;;;;7.25;2.70;;;;;;;3.75;85.18;98080.37;5301814;27;20399;-82
2023/01/31 05:54:10;;;;;;;10.25;2.90;;;;;;;3.60;85.81;98069.53;5301759;27;20158;-82
2023/01/31 05:56:38;;;;;;;8.13;2.83;;;;;;;3.82;84.47;98068.34;5301944;27;20114;-82
2023/01/31 05:59:05;;;;;;;8.35;2.70;;;;;;;3.68;84.42;98060.91;5301826;27;20102;-82
2023/01/31 06:01:32;;;;;;;9.70;2.90;;;;;;;3.86;83.78;98072.56;5301464;27;20061;-82
2023/01/31 06:03:59;;;;;;;7.97;2.70;;;;;;;3.80;83.73;98077.72;5302165;27;20057;-80
2023/01/31 06:06:26;;;;;;;10.60;2.83;;;;;;;3.71;84.69;98078.72;5301905;27;20099;-81
2023/01/31 06:08:53;;;;;;;7.60;2.53;;;;;;;3.96;83.48;98083.47;5301295;27;20041;-81
2023/01/31 06:11:20;;;;;;;7.30;2.67;;;;;;;3.70;83.98;98071.91;5301657;27;20064;-81
2023/01/31 06:13:48;;;;;;;7.85;2.62;;;;;;;3.64;84.60;98064.37;5301864;27;20061;-81
2023/01/31 06:16:15;;;;;;;7.47;2.47;;;;;;;3.70;83.62;98086.38;5301407;27;20088;-81
2023/01/31 06:18:42;;;;;;;7.12;2.65;;;;;;;3.66;83.54;98083.06;5301729;27;20075;-82
2023/01/31 06:21:10;;;;;;;6.53;2.53;;;;;;;3.70;83.92;98074.47;5281889;27;20056;-81
2023/01/31 06:23:38;;;;;;;10.20;2.72;;;;;;;3.71;84.06;98095.72;5301761;27;20071;-82
2023/01/31 06:26:05;;;;;;;7.40;2.70;;;;;;;3.62;83.93;98104.38;5282262;27;20115;-82
2023/01/31 06:28:31;;;;;;;8.23;2.42;;;;;;;3.25;87.79;98113.38;5301290;27;20091;-82
2023/01/31 06:30:58;;;;;;;10.05;2.97;;;;;;;3.50;87.47;98094.31;5303515;27;20113;-82
2023/01/31 06:33:25;;;;;;;8.50;2.92;;;;;;;3.47;89.45;98119.88;5284734;27;20075;-82
2023/01/31 06:36:11;;;;;;;8.68;2.30;;;;;;;3.28;91.54;98119.28;5303754;27;20094;-81
2023/01/31 06:38:38;;;;;;;7.68;2.42;;;;;;;3.18;93.95;98122.78;5304047;27;20041;-82
2023/01/31 06:41:05;;;;;;;6.93;2.12;;;;;;;3.04;96.34;98117.03;5303887;27;20057;-82
2023/01/31 06:43:31;;;;;;;;;;;;;;;2.82;97.76;98140.19;5304033;27;20057;-82
2023/01/31 06:45:58;;;;;;;6.72;2.15;;;;;;;2.68;99.90;98142.06;5303916;27;20002;-81
2023/01/31 06:48:25;;;;;;;6.40;2.00;;;;;;;2.63;100.00;98143.78;5304048;27;20106;-81
2023/01/31 06:50:53;;;;;;;;;;;;;;;2.53;100.00;98158.31;5303760;27;20060;-82
2023/01/31 06:53:20;;;;;;;4.80;1.90;;;;;;;2.70;100.00;98153.06;5304302;27;19972;-82
2023/01/31 06:55:47;;;;;;;5.10;1.60;;;;;;;2.28;100.00;98155.13;5303977;27;20052;-81
2023/01/31 06:58:14;;;;;;;;;;;;;;;2.10;100.00;98156.97;5303673;27;20341;-82
2023/01/31 07:00:40;;;;;;;2.87;1.30;;;;;;;2.01;100.00;98158.72;5305195;27;19963;-81
2023/01/31 07:03:07;;;;;;;;;;;;;;;2.05;100.00;98167.19;5305404;27;20060;-80
2023/01/31 07:05:34;;;;;;;1.75;1.10;;;;;;;1.97;100.00;98154.53;5302319;27;20108;-81
2023/01/31 07:08:01;;;;;;;3.83;1.10;;;;;;;2.22;100.00;98145.00;5305167;27;20045;-79
2023/01/31 07:10:28;;;;;;;3.30;1.35;;;;;;;2.41;100.00;98157.56;5304164;27;20087;-79
2023/01/31 07:12:56;;;;;;;2.37;1.20;;;;;;;2.23;100.00;98158.56;5305760;27;20057;-82
2023/01/31 07:15:23;;;;;;;7.30;2.00;;;;;;;1.80;100.00;98141.06;5302408;27;20062;-82
2023/01/31 07:17:49;;;;;;;5.37;1.20;;;;;;;2.28;100.00;98142.41;5303842;27;20053;-81
2023/01/31 07:20:17;;;;;;;6.62;1.33;;;;;;;2.10;100.00;98150.19;5304716;27;20084;-81
2023/01/31 07:22:44;;;;;;;6.37;1.58;;;;;;;2.49;100.00;98171.09;5304759;27;20408;-81
2023/01/31 07:25:10;;;;;;;;;;;;;;;2.58;100.00;98166.78;5305988;27;20049;-81
2023/01/31 07:27:37;;;;;;;6.72;1.83;;;;;;;2.62;100.00;98137.84;5303767;27;20004;-81
2023/01/31 07:30:04;;;;;;;;;;;;;;;2.38;100.00;98152.53;5304007;27;20061;-82
2023/01/31 07:32:31;;;;;;;4.27;1.67;;;;;;;2.53;100.00;98143.03;5303331;27;19973;-82
2023/01/31 07:34:59;;;;;;;3.55;1.42;;;;;;;2.28;100.00;98151.75;5303643;27;20069;-81
2023/01/31 07:37:26;;;;;;;;;;;;;;;2.23;100.00;98158.56;5303710;27;20091;-80
2023/01/31 07:39:53;;;;;;;6.45;1.77;;;;;;;1.97;100.00;98161.31;5303348;27;19964;-82
2023/01/31 07:42:19;;;;;;;;;;;;;;;2.17;100.00;98156.94;5302705;27;20138;-81
2023/01/31 07:44:46;;;;;;;4.78;1.60;;;;;;;2.42;100.00;98164.34;5302078;27;19971;-81
2023/01/31 07:47:14;;;;;;;8.23;1.83;;;;;;;2.60;100.00;98184.59;5302810;27;20048;-82
2023/01/31 07:49:41;;;;;;;6.78;1.67;;;;;;;2.60;100.00;98176.94;5302062;27;20064;-82
2023/01/31 07:52:08;;;;;;;;;;;;;;;2.87;100.00;98191.97;5303027;27;20060;-82
2023/01/31 07:54:35;;;;;;;9.55;2.00;;;;;;;2.60;100.00;98200.72;5304367;27;19960;-83
2023/01/31 07:57:01;;;;;;;;;;;;;;;2.49;100.00;98211.84;5306653;27;20068;-82
2023/01/31 07:59:28;;;;;;;5.75;1.77;;;;;;;2.38;100.00;98206.84;5304571;27;19961;-82
2023/01/31 08:04:41;;;;;;;6.15;1.98;;;;;;;2.62;100.00;98219.38;5304203;27;20045;-83
2023/01/31 08:07:09;;;;;;;7.43;2.08;;;;;;;2.83;100.00;98208.16;5301456;27;20045;-82
2023/01/31 08:09:37;;;;;;;4.57;1.58;;;;;;;3.15;100.00;98215.47;5282765;27;20060;-82
2023/01/31 08:12:06;;;;;;;7.05;1.55;;;;;;;4.24;95.99;98201.31;5282551;27;20060;-81
2023/01/31 08:14:33;;;;;;;3.28;1.65;;;;;;;4.16;91.66;98196.34;5303380;27;20436;-82
2023/01/31 08:17:00;;;;;;;6.18;1.87;;;;;;;5.18;87.11;98184.38;5303782;27;20425;-82
2023/01/31 08:19:27;;;;;;;3.85;1.52;;;;;;;5.80;83.42;98194.22;5285046;27;20075;-81
2023/01/31 08:21:55;;;;;;;4.80;1.45;;;;;;;5.65;81.27;98204.81;5302709;27;20106;-81
2023/01/31 08:24:22;;;;;;;6.25;1.90;;;;;;;5.79;81.64;98216.44;5302194;27;20048;-81
2023/01/31 08:26:48;;;;;;;8.00;1.90;;;;;;;6.26;80.41;98226.53;5301997;27;20049;-82
2023/01/31 08:29:15;;;;;;;5.50;1.85;;;;;;;6.55;78.65;98228.44;5301591;27;20066;-82
2023/01/31 08:31:43;;;;;;;4.15;1.60;;;;;;;5.74;80.21;98241.31;5301497;27;20453;-82
2023/01/31 08:34:10;;;;;;;5.82;1.98;;;;;;;5.22;82.84;98236.34;5302026;27;20324;-82
2023/01/31 08:36:37;;;;;;;4.70;1.50;;;;;;;4.16;89.78;98249.13;5301451;27;20363;-83
2023/01/31 08:39:04;;;;;;;3.62;2.00;;;;;;;3.82;93.02;98254.66;5300509;27;20062;-82
2023/01/31 08:41:32;;;;;;;6.95;1.77;;;;;;;3.81;94.29;98252.97;5300093;27;20061;-82
2023/01/31 08:43:59;;;;;;;3.85;2.00;;;;;;;4.02;95.32;98250.16;5300513;27;20739;-81
2023/01/31 08:46:32;;;;;;;7.60;1.77;;;;;;;3.25;98.37;98262.13;5301790;27;20099;-81
2023/01/31 08:49:00;;;;;;;5.10;1.70;;;;;;;3.09;99.08;98265.69;5301447;27;20116;-82
2023/01/31 08:51:27;;;;;;;4.32;1.35;;;;;;;2.91;100.00;98266.69;5301638;27;20061;-80
2023/01/31 08:53:54;;;;;;;6.87;1.65;;;;;;;2.76;100.00;98267.66;5301622;27;20045;-82
2023/01/31 08:56:24;;;;;;;4.57;1.10;;;;;;;2.65;100.00;98246.50;5302392;27;20063;-82
2023/01/31 08:58:52;;;;;;;6.28;1.30;;;;;;;2.93;100.00;98241.19;5301917;27;20062;-81
2023/01/31 09:01:20;;;;;;;6.85;2.08;;;;;;;2.93;100.00;98264.13;5301533;27;20118;-82
2023/01/31 09:03:49;;;;;;;4.47;1.50;;;;;;;3.26;100.00;98262.97;5301469;27;20064;-81
2023/01/31 09:06:18;;;;;;;3.17;1.15;;;;;;;3.51;100.00;98273.75;5301994;27;20061;-82
2023/01/31 09:08:45;;;;;;;3.53;1.30;;;;;;;3.61;100.00;98273.63;5301860;27;20058;-83
2023/01/31 09:11:17;;;;;;;3.45;1.40;;;;;;;3.50;100.00;98278.00;5301306;27;20072;-84
2023/01/31 09:13:49;;;;;;;3.92;1.60;;;;;;;3.30;100.00;98285.03;5300649;27;20116;-83
2023/01/31 09:16:18;;;;;;;5.20;1.40;;;;;;;3.01;100.00;98275.12;5301891;27;20100;-82
2023/01/31 09:18:44;;;;;;;3.90;1.60;;;;;;;3.08;100.00;98267.38;5301407;27;20146;-82
2023/01/31 09:21:11;;;;;;;;;;;;;;;2.98;100.00;98241.97;5302237;27;20076;-82
2023/01/31 09:23:38;;;;;;;2.58;1.25;;;;;;;3.31;100.00;98256.13;5302199;27;20306;-82
2023/01/31 09:26:10;;;;;;;2.40;1.05;;;;;;;3.91;99.88;98277.53;5301998;27;20068;-82
2023/01/31 09:28:37;;;;;;;1.92;1.00;;;;;;;4.63;95.28;98263.75;5300521;27;20081;-82
2023/01/31 09:31:05;;;;;;;3.33;1.30;;;;;;;4.81;90.72;98277.97;5301631;27;20120;-82
2023/01/31 09:33:32;;;;;;;4.68;1.35;;;;;;;5.20;91.52;98297.72;5302105;27;20048;-83
2023/01/31 09:36:02;;;;;;;5.47;1.42;;;;;;;5.07;89.84;98296.25;5282566;27;20041;-82
2023/01/31 09:38:29;;;;;;;2.97;1.25;;;;;;;4.87;87.92;98280.41;5301544;27;20062;-82
2023/01/31 09:40:59;;;;;;;6.80;1.40;;;;;;;4.43;91.36;98309.19;5301741;27;20057;-82
2023/01/31 09:43:29;;;;;;;5.78;1.30;;;;;;;4.29;90.15;98314.50;5300586;27;20057;-82
2023/01/31 09:45:59;;;;;;;3.83;1.00;;;;;;;3.68;94.29;98318.63;5300070;27;20490;-82
2023/01/31 09:48:33;;;;;;;6.35;1.33;;;;;;;3.44;94.92;98318.91;5282054;27;20378;-82
2023/01/31 09:51:02;;;;;;;4.78;1.17;;;;;;;3.00;100.00;98329.50;5300223;27;20065;-83
2023/01/31 09:53:32;;;;;;;4.03;1.33;;;;;;;2.70;100.00;98312.75;5299772;27;20077;-83
2023/01/31 09:55:59;;;;;;;1.42;1.00;;;;;;;2.76;100.00;98299.94;5301819;27;20445;-82
2023/01/31 09:58:38;;;;;;;;;;;;;;;3.31;100.00;98294.37;5301826;27;20061;-83
2023/01/31 10:01:13;;;;;;;3.83;1.25;;;;;;;3.71;100.00;98290.50;5301845;27;19971;-83
2023/01/31 10:03:50;;;;;;;5.28;1.30;;;;;;;4.46;95.16;98298.91;5264669;27;20068;-83
2023/01/31 10:06:25;;;;;;;;;;;;;;;4.84;92.44;98285.56;5282343;27;20049;-83
2023/01/31 10:08:58;;;;;;;4.20;1.20;;;;;;;4.88;90.75;98300.81;5300487;27;20300;-83
2023/01/31 10:11:47;;;;;;;8.73;1.60;;;;;;;4.61;88.93;98306.38;5305224;27;20327;-83
2023/01/31 10:14:30;;;;;;;6.53;1.20;;;;;;;4.09;91.02;98314.75;5303466;27;20052;-84
2023/01/31 10:17:04;;;;;;;9.25;1.60;;;;;;;4.04;94.29;98317.37;5282976;27;20411;-83
2023/01/31 10:19:49;;;;;;;5.80;1.40;;;;;;;4.29;90.39;98304.28;5307816;27;20068;-82
2023/01/31 10:22:27;;;;;;;3.62;1.23;;;;;;;4.93;88.38;98305.88;5305983;27;20064;-81
2023/01/31 10:24:58;;;;;;;3.87;1.37;;;;;;;5.42;85.11;98312.72;5286656;27;20124;-83
2023/01/31 10:28:15;;;;;;;4.82;1.45;;;;;;;6.21;80.05;98311.22;5300408;27;20060;-84
2023/01/31 10:30:51;;;;;;;4.20;1.17;;;;;;;6.91;78.27;98321.59;5237330;27;20058;-83
2023/01/31 10:33:44;;;;;;;9.32;2.72;;;;;;;6.54;74.56;98317.31;5276388;27;20477;-84
2023/01/31 10:36:22;;;;;;;5.28;1.95;;;;;;;6.43;77.59;98309.03;5302465;27;20107;-84
2023/01/31 10:39:28;;;;;;;7.15;1.35;;;;;;;6.20;76.04;98294.16;5303846;27;20045;-84
2023/01/31 10:42:02;;;;;;;5.32;1.70;;;;;;;5.87;78.15;98308.47;5303577;27;20030;-84
2023/01/31 10:44:54;;;;;;;6.87;1.30;;;;;;;5.32;81.58;98319.72;5282711;27;20061;-84
2023/01/31 10:47:31;;;;;;;3.78;1.25;;;;;;;5.74;78.92;98307.00;5282231;27;20053;-84
2023/01/31 10:49:58;;;;;;;6.10;1.40;;;;;;;5.89;77.90;98321.22;5301283;27;20080;-84
2023/01/31 10:52:40;;;;;;;;;;;;;;;6.99;74.72;98323.97;5303288;27;20056;-84
2023/01/31 10:55:26;;;;;;;10.15;1.73;;;;;;;7.12;75.10;98328.78;5304581;27;19964;-85
2023/01/31 10:57:53;;;;;;;4.00;1.35;;;;;;;7.03;71.67;98326.47;5304028;27;20053;-84
2023/01/31 11:00:24;;;;;;;7.60;1.52;;;;;;;7.51;72.55;98326.09;5285409;27;20052;-84
2023/01/31 11:02:51;;;;;;;5.97;1.70;;;;;;;7.73;71.71;98331.50;5306355;27;20060;-79
2023/01/31 11:05:21;;;;;;;4.82;1.60;;;;;;;7.32;71.35;98333.41;5307934;27;20108;-80
2023/01/31 11:07:48;;;;;;;4.00;1.52;;;;;;;6.76;72.08;98327.94;5315411;27;20091;-80
2023/01/31 11:10:29;;;;;;;7.40;2.03;;;;;;;6.93;72.14;98330.13;5312061;27;20045;-80
2023/01/31 11:13:03;;;;;;;7.30;1.70;;;;;;;6.63;72.07;98336.78;5291027;27;20058;-80
2023/01/31 11:15:41;;;;;;;4.95;1.50;;;;;;;6.44;74.16;98326.09;5310347;27;20477;-80
2023/01/31 11:18:14;;;;;;;4.97;1.48;;;;;;;6.78;72.52;98325.31;5308821;27;20064;-79
2023/01/31 11:20:47;;;;;;;7.12;1.70;;;;;;;6.08;74.65;98318.31;5310859;27;20114;-78
2023/01/31 11:23:16;;;;;;;6.00;1.65;;;;;;;5.65;76.37;98314.88;5312129;27;20065;-79
2023/01/31 11:25:48;;;;;;;5.55;1.80;;;;;;;5.62;76.86;98318.31;5312264;27;20060;-79
2023/01/31 11:28:25;;;;;;;4.72;1.60;;;;;;;5.43;78.23;98310.16;5293712;27;20041;-79
2023/01/31 11:30:54;;;;;;;7.32;2.08;;;;;;;5.36;80.43;98317.97;5306652;27;20053;-80
2023/01/31 11:33:48;;;;;;;6.10;1.98;;;;;;;5.13;80.79;98310.69;5268301;27;20120;-80
2023/01/31 11:36:21;;;;;;;8.05;2.00;;;;;;;5.06;81.38;98306.53;5290228;27;20029;-79
2023/01/31 11:38:49;;;;;;;9.40;2.05;;;;;;;5.37;82.14;98312.81;5309693;27;20040;-79
2023/01/31 11:41:36;;;;;;;8.73;2.22;;;;;;;5.45;78.67;98295.59;5308388;27;20101;-79
2023/01/31 11:44:18;;;;;;;7.90;2.20;;;;;;;5.39;80.39;98312.78;5305690;27;20025;-79
2023/01/31 11:47:03;;;;;;;6.25;2.03;;;;;;;5.36;79.53;98312.84;5306016;27;20060;-79
2023/01/31 11:49:33;;;;;;;7.07;2.03;;;;;;;5.47;78.48;98303.25;5305341;27;20471;-79
2023/01/31 11:52:21;;;;;;;8.70;2.58;;;;;;;5.63;79.98;98303.78;5305614;27;20025;-79
2023/01/31 11:54:54;;;;;;;7.78;2.22;;;;;;;5.99;77.90;98292.88;5304115;27;20114;-79
2023/01/31 11:57:27;;;;;;;8.07;2.40;;;;;;;6.18;75.67;98285.66;5306645;27;20025;-79
2023/01/31 11:59:56;;;;;;;7.80;2.05;;;;;;;6.59;74.47;98279.63;5304698;27;20053;-84
2023/01/31 12:02:43;;;;;;;8.15;1.90;;;;;;;6.80;70.43;98273.13;5283130;27;20049;-81
2023/01/31 12:05:13;;;;;;;5.90;1.90;;;;;;;6.31;73.35;98264.00;5302043;27;20057;-82
2023/01/31 12:07:52;;;;;;;9.55;2.40;;;;;;;6.55;69.81;98262.59;5285877;27;20064;-81
2023/01/31 12:10:39;;;;;;;7.45;2.40;;;;;;;6.12;72.00;98272.97;5313047;27;20817;-81
2023/01/31 12:13:42;;;;;;;9.65;2.42;;;;;;;5.98;72.66;98268.16;5312192;27;20025;-81
2023/01/31 12:16:11;;;;;;;6.93;2.50;;;;;;;5.92;73.25;98280.22;5308263;27;20062;-82